Time;durP1;ratioP1;P1;durP2;ratioP2;P2;SDS_P1;SDS_P2;PMS_P1;PMS_P2;Temp;Humidity;BMP_temperature;BMP_pressure;BME280_temperature;BME280_humidity;BME280_pressure;Samples;Min_cycle;Max_cycle;Signal;HPM_P1;HPM_P2
2023/09/23 00:01:20;;;;;;;16.25;14.85;;;;;;;10.63;100.00;100668.94;5050332;28;20510;-50
2023/09/23 00:03:46;;;;;;;17.33;15.65;;;;;;;10.57;100.00;100669.41;5045258;28;20045;-49
2023/09/23 00:06:11;;;;;;;17.90;16.17;;;;;;;10.56;100.00;100667.75;5044084;28;20119;-49
2023/09/23 00:08:38;;;;;;;16.42;14.93;;;;;;;10.52;100.00;100675.13;5049735;28;20482;-49
2023/09/23 00:11:04;;;;;;;20.17;15.93;;;;;;;10.51;100.00;100680.56;5047456;28;20488;-48
2023/09/23 00:13:30;;;;;;;17.30;15.50;;;;;;;10.51;100.00;100681.38;5048547;28;20029;-49
2023/09/23 00:15:56;;;;;;;16.90;15.30;;;;;;;10.46;100.00;100680.91;5044768;28;20168;-50
2023/09/23 00:18:21;;;;;;;16.60;14.95;;;;;;;10.48;100.00;100686.94;5051484;28;20091;-49
2023/09/23 00:20:47;;;;;;;16.55;15.05;;;;;;;10.46;100.00;100680.91;5043281;28;20086;-48
2023/09/23 00:23:13;;;;;;;15.98;14.50;;;;;;;10.45;100.00;100679.22;5047824;28;20426;-49
2023/09/23 00:25:39;;;;;;;16.38;14.88;;;;;;;10.46;100.00;100680.03;5046126;28;20024;-49
2023/09/23 00:28:11;;;;;;;16.17;14.50;;;;;;;10.44;100.00;100685.50;5044580;28;20057;-49
2023/09/23 00:30:37;;;;;;;16.38;14.88;;;;;;;10.43;100.00;100682.97;5052971;28;20025;-49
2023/09/23 00:33:02;;;;;;;16.50;14.73;;;;;;;10.41;100.00;100691.03;5046487;28;20037;-49
2023/09/23 00:35:28;;;;;;;15.25;13.68;;;;;;;10.37;100.00;100684.28;5045154;28;20028;-49
2023/09/23 00:37:53;;;;;;;14.93;13.43;;;;;;;10.36;100.00;100694.06;5052636;28;20433;-49
2023/09/23 00:40:38;;;;;;;17.05;14.00;;;;;;;10.36;100.00;100694.06;5051554;28;20031;-49
2023/09/23 00:43:11;;;;;;;16.17;14.07;;;;;;;10.35;100.00;100694.16;5050838;28;20056;-50
2023/09/23 00:45:48;;;;;;;15.73;13.18;;;;;;;10.36;100.00;100704.69;5046758;28;20073;-49
2023/09/23 00:48:18;;;;;;;16.77;12.63;;;;;;;10.33;100.00;100709.38;5049719;28;20025;-49
2023/09/23 00:50:43;;;;;;;14.88;13.27;;;;;;;10.34;100.00;100708.41;5047315;28;20055;-49
2023/09/23 00:53:09;;;;;;;14.75;13.23;;;;;;;10.34;100.00;100700.44;5047775;28;20029;-49
2023/09/23 00:55:41;;;;;;;14.98;13.38;;;;;;;10.35;100.00;100710.09;5045538;28;20447;-51
2023/09/23 00:58:07;;;;;;;14.13;12.73;;;;;;;10.34;100.00;100703.09;5050746;28;20434;-49
2023/09/23 01:00:35;;;;;;;16.92;12.38;;;;;;;10.31;100.00;100709.47;5049768;28;20100;-48
2023/09/23 01:03:01;;;;;;;13.30;11.70;;;;;;;10.32;100.00;100707.69;5052909;28;20025;-49
2023/09/23 01:05:30;;;;;;;15.30;11.07;;;;;;;10.30;100.00;100706.94;5053646;28;20638;-49
2023/09/23 01:07:57;;;;;;;13.45;12.05;;;;;;;10.27;100.00;100715.97;5045850;28;20143;-50
2023/09/23 01:10:23;;;;;;;13.48;10.93;;;;;;;10.28;100.00;100722.13;5052499;28;20557;-48
2023/09/23 01:12:49;;;;;;;14.57;11.55;;;;;;;10.29;100.00;100719.38;5052867;28;20041;-49
2023/09/23 01:15:18;;;;;;;13.18;11.75;;;;;;;10.28;100.00;100719.47;5053141;28;20029;-48
2023/09/23 01:17:45;;;;;;;13.98;12.05;;;;;;;10.29;100.00;100718.50;5046532;28;20365;-48
2023/09/23 01:20:13;;;;;;;12.98;10.50;;;;;;;10.25;100.00;100720.56;5054100;28;20036;-49
2023/09/23 01:22:39;;;;;;;15.73;11.33;;;;;;;10.29;100.00;100723.81;5055555;28;20119;-49
2023/09/23 01:25:05;;;;;;;16.63;11.43;;;;;;;10.31;100.00;100729.88;5053375;28;20116;-49
2023/09/23 01:27:34;;;;;;;13.05;9.35;;;;;;;10.31;100.00;100735.19;5052954;28;20040;-49
2023/09/23 01:30:03;;;;;;;10.55;9.48;;;;;;;10.32;100.00;100739.53;5043266;28;20554;-48
2023/09/23 01:32:48;;;;;;;11.65;9.30;;;;;;;10.32;100.00;100740.38;5051299;28;20021;-49
2023/09/23 01:35:17;;;;;;;11.55;9.52;;;;;;;10.31;100.00;100737.84;5045069;28;20502;-49
2023/09/23 01:37:44;;;;;;;11.68;9.00;;;;;;;10.31;100.00;100738.66;5043051;28;20037;-49
2023/09/23 01:40:16;;;;;;;13.77;8.73;;;;;;;10.34;100.00;100745.56;5048553;28;20039;-49
2023/09/23 01:42:41;;;;;;;11.23;8.50;;;;;;;10.34;100.00;100734.94;5046461;28;20081;-49
2023/09/23 01:45:10;;;;;;;11.38;8.30;;;;;;;10.35;100.00;100739.31;5051832;28;20126;-49
2023/09/23 01:47:35;;;;;;;13.30;8.65;;;;;;;10.35;100.00;100752.56;5048511;28;20378;-49
2023/09/23 01:50:00;;;;;;;12.30;8.13;;;;;;;10.38;100.00;100744.38;5044792;28;20040;-49
2023/09/23 01:52:26;;;;;;;11.82;8.27;;;;;;;10.38;100.00;100741.72;5048624;28;20091;-49
2023/09/23 01:54:52;;;;;;;11.77;7.85;;;;;;;10.40;100.00;100747.75;5045398;28;20029;-49
2023/09/23 01:57:17;;;;;;;10.38;7.35;;;;;;;10.40;100.00;100742.44;5048021;28;20048;-49
2023/09/23 01:59:43;;;;;;;9.85;7.35;;;;;;;10.38;100.00;100746.19;5047093;28;20493;-49
2023/09/23 02:02:09;;;;;;;10.07;6.90;;;;;;;10.40;100.00;100761.03;5048760;28;20067;-49
2023/09/23 02:04:37;;;;;;;8.88;6.53;;;;;;;10.40;100.00;100752.22;5047860;28;20057;-48
2023/09/23 02:07:10;;;;;;;11.15;6.65;;;;;;;10.37;100.00;100755.94;5048538;28;20063;-49
2023/09/23 02:09:37;;;;;;;9.43;6.55;;;;;;;10.36;100.00;100757.78;5047202;28;20060;-49
2023/09/23 02:12:03;;;;;;;9.80;5.80;;;;;;;10.35;100.00;100764.03;5047546;28;20487;-49
2023/09/23 02:14:29;;;;;;;10.65;6.22;;;;;;;10.34;100.00;100772.97;5047419;28;20040;-49
2023/09/23 02:16:55;;;;;;;13.65;5.75;;;;;;;10.32;100.00;100766.91;5045554;28;20716;-48
2023/09/23 02:19:21;;;;;;;7.47;5.55;;;;;;;10.33;100.00;100773.09;5048102;28;20029;-49
2023/09/23 02:21:47;;;;;;;9.70;5.53;;;;;;;10.29;100.00;100776.91;5044498;28;20036;-48
2023/09/23 02:24:13;;;;;;;9.30;5.47;;;;;;;10.28;100.00;100773.41;5048314;28;20036;-49
2023/09/23 02:26:38;;;;;;;8.38;5.63;;;;;;;10.26;100.00;100779.78;5044658;28;20067;-49
2023/09/23 02:29:04;;;;;;;10.90;5.60;;;;;;;10.25;100.00;100780.78;5048080;28;20060;-49
2023/09/23 02:31:31;;;;;;;8.32;5.00;;;;;;;10.23;100.00;100786.19;5044684;28;20483;-49
2023/09/23 02:33:57;;;;;;;11.45;5.65;;;;;;;10.23;100.00;100786.19;5049254;28;20028;-49
2023/09/23 02:36:22;;;;;;;10.05;5.72;;;;;;;10.24;100.00;100787.03;5049187;28;20109;-49
2023/09/23 02:38:48;;;;;;;11.23;5.95;;;;;;;10.22;100.00;100791.63;5050214;28;20024;-49
2023/09/23 02:41:13;;;;;;;9.70;5.22;;;;;;;10.21;100.00;100800.53;5048475;28;20029;-48
2023/09/23 02:43:38;;;;;;;7.40;5.10;;;;;;;10.19;100.00;100801.50;5047886;28;20101;-49
2023/09/23 02:46:05;;;;;;;6.85;5.10;;;;;;;10.17;100.00;100806.09;5044046;28;20531;-49
2023/09/23 02:48:30;;;;;;;12.25;5.45;;;;;;;10.18;100.00;100801.63;5044330;28;20029;-49
2023/09/23 02:50:58;;;;;;;10.65;5.15;;;;;;;10.16;100.00;100809.69;5044585;28;20052;-49
2023/09/23 02:53:24;;;;;;;9.05;5.00;;;;;;;10.15;100.00;100808.00;5054048;28;20029;-49
2023/09/23 02:56:04;;;;;;;7.28;4.72;;;;;;;10.12;100.00;100802.91;5044328;28;20026;-49
2023/09/23 02:58:29;;;;;;;13.38;5.22;;;;;;;10.11;100.00;100811.03;5046557;28;20017;-49
2023/09/23 03:00:57;;;;;;;9.05;5.00;;;;;;;10.11;100.00;100817.16;5044537;28;20029;-49
2023/09/23 03:03:24;;;;;;;9.38;4.97;;;;;;;10.09;100.00;100823.53;5053297;28;20063;-50
2023/09/23 03:05:55;;;;;;;10.65;4.70;;;;;;;10.09;100.00;100821.75;5044983;28;20072;-50
2023/09/23 03:08:23;;;;;;;6.65;4.55;;;;;;;10.06;100.00;100815.78;5047463;28;20052;-49
2023/09/23 03:10:52;;;;;;;11.63;4.72;;;;;;;10.09;100.00;100826.19;5047013;28;20102;-50
2023/09/23 03:13:18;;;;;;;11.98;4.57;;;;;;;10.06;100.00;100816.66;5051158;28;20024;-49
2023/09/23 03:15:50;;;;;;;12.15;5.00;;;;;;;10.04;100.00;100826.53;5049318;28;20529;-49
2023/09/23 03:18:17;;;;;;;8.68;4.78;;;;;;;10.03;100.00;100822.19;5043430;28;20504;-49
2023/09/23 03:20:43;;;;;;;10.65;4.90;;;;;;;10.03;100.00;100826.66;5051862;28;20057;-49
2023/09/23 03:23:09;;;;;;;10.35;4.63;;;;;;;10.02;100.00;100819.66;5045148;28;20048;-49
2023/09/23 03:25:45;;;;;;;10.35;4.47;;;;;;;10.00;100.00;100823.25;5045045;28;20147;-53
2023/09/23 03:28:11;;;;;;;9.80;4.68;;;;;;;10.00;100.00;100831.22;5043307;28;20112;-49
2023/09/23 03:30:36;;;;;;;5.50;4.57;;;;;;;10.00;100.00;100827.72;5049311;28;20451;-49
2023/09/23 03:33:02;;;;;;;8.88;4.78;;;;;;;10.00;100.00;100828.56;5044512;28;20095;-48
2023/09/23 03:35:28;;;;;;;8.82;5.13;;;;;;;10.00;100.00;100835.69;5046613;28;20495;-50
2023/09/23 03:37:54;;;;;;;7.13;4.82;;;;;;;9.97;100.00;100833.25;5046590;28;20025;-49
2023/09/23 03:40:24;;;;;;;10.45;4.78;;;;;;;9.97;100.00;100843.88;5053606;28;20041;-50
2023/09/23 03:42:50;;;;;;;7.45;4.57;;;;;;;9.96;100.00;100844.84;5044028;28;20053;-49
2023/09/23 03:45:18;;;;;;;11.95;4.80;;;;;;;9.96;100.00;100847.50;5046510;28;20047;-52
2023/09/23 03:47:46;;;;;;;9.45;4.80;;;;;;;9.96;100.00;100850.16;5048785;28;20025;-49
2023/09/23 03:50:15;;;;;;;11.13;4.70;;;;;;;9.95;100.00;100848.44;5050800;28;20021;-49
2023/09/23 03:52:41;;;;;;;9.57;4.85;;;;;;;9.96;100.00;100855.47;5050067;28;20295;-49
2023/09/23 03:55:08;;;;;;;9.98;4.88;;;;;;;9.93;100.00;100853.88;5046428;28;20620;-51
2023/09/23 03:57:34;;;;;;;8.50;4.22;;;;;;;9.91;100.00;100855.78;5050125;28;20063;-49
2023/09/23 03:59:59;;;;;;;8.93;4.93;;;;;;;9.91;100.00;100857.59;5050262;28;20937;-50
2023/09/23 04:02:24;;;;;;;9.98;5.18;;;;;;;9.91;100.00;100853.16;5044442;28;20029;-51
2023/09/23 04:04:53;;;;;;;13.07;4.97;;;;;;;9.90;100.00;100853.25;5046899;28;20036;-49
2023/09/23 04:07:20;;;;;;;9.98;4.80;;;;;;;9.93;100.00;100863.66;5043990;28;20033;-50
2023/09/23 04:09:45;;;;;;;11.95;5.50;;;;;;;9.95;100.00;100859.91;5047853;28;20144;-50
2023/09/23 04:12:10;;;;;;;11.07;5.28;;;;;;;9.98;100.00;100864.16;5050096;28;20108;-50
2023/09/23 04:14:37;;;;;;;11.50;5.10;;;;;;;9.97;100.00;100863.28;5050037;28;20127;-51
2023/09/23 04:17:03;;;;;;;11.07;5.20;;;;;;;10.00;100.00;100862.22;5048183;28;20424;-51
2023/09/23 04:19:29;;;;;;;8.25;5.20;;;;;;;9.99;100.00;100868.47;5050736;28;20040;-50
2023/09/23 04:21:55;;;;;;;12.25;5.07;;;;;;;10.00;100.00;100876.31;5049878;28;20470;-49
2023/09/23 04:24:21;;;;;;;11.05;5.20;;;;;;;10.00;100.00;100873.69;5049474;28;20049;-51
2023/09/23 04:26:47;;;;;;;10.15;5.03;;;;;;;10.00;100.00;100886.09;5047088;28;20017;-49
2023/09/23 04:29:12;;;;;;;7.90;4.85;;;;;;;9.98;100.00;100885.38;5050696;28;20025;-49
2023/09/23 04:31:38;;;;;;;8.77;5.05;;;;;;;9.98;100.00;100888.03;5047501;28;20033;-49
2023/09/23 04:34:03;;;;;;;9.30;4.68;;;;;;;9.95;100.00;100894.41;5049401;28;20020;-49
2023/09/23 04:36:28;;;;;;;13.85;5.03;;;;;;;9.97;100.00;100896.94;5048416;28;20395;-50
2023/09/23 04:38:54;;;;;;;10.77;5.10;;;;;;;9.96;100.00;100897.91;5051828;28;20379;-49
2023/09/23 04:41:19;;;;;;;11.18;4.97;;;;;;;9.93;100.00;100900.78;5053782;28;20033;-49
2023/09/23 04:43:45;;;;;;;10.10;5.35;;;;;;;9.93;100.00;100904.28;5053126;28;20040;-49
2023/09/23 04:46:14;;;;;;;15.85;5.03;;;;;;;9.91;100.00;100902.69;5055109;28;20036;-51
2023/09/23 04:48:40;;;;;;;10.02;5.07;;;;;;;9.93;100.00;100911.41;5049797;28;20025;-49
2023/09/23 04:51:08;;;;;;;8.63;4.88;;;;;;;9.93;100.00;100914.91;5053539;28;20029;-48
2023/09/23 04:53:33;;;;;;;8.30;4.90;;;;;;;9.91;100.00;100915.94;5051313;28;20615;-49
2023/09/23 04:55:59;;;;;;;7.78;4.53;;;;;;;9.91;100.00;100915.94;5048727;28;20044;-50
2023/09/23 04:58:24;;;;;;;11.25;5.20;;;;;;;9.88;100.00;100910.91;5051159;28;20021;-48
2023/09/23 05:00:51;;;;;;;12.68;5.18;;;;;;;9.87;100.00;100912.69;5053493;28;20119;-48
2023/09/23 05:03:17;;;;;;;12.35;5.43;;;;;;;9.86;100.00;100913.66;5053641;28;20033;-49
2023/09/23 05:05:42;;;;;;;7.75;5.40;;;;;;;9.85;100.00;100929.69;5050169;28;20036;-49
2023/09/23 05:08:09;;;;;;;10.82;5.10;;;;;;;9.82;100.00;100928.94;5049190;28;20059;-49
2023/09/23 05:10:35;;;;;;;8.95;5.13;;;;;;;9.79;100.00;100934.47;5049683;28;20032;-49
2023/09/23 05:13:01;;;;;;;8.40;5.55;;;;;;;9.79;100.00;100939.78;5054283;28;20065;-48
2023/09/23 05:15:26;;;;;;;7.65;5.05;;;;;;;9.78;100.00;100942.53;5053824;28;20482;-50
2023/09/23 05:17:54;;;;;;;13.15;5.00;;;;;;;9.75;100.00;100942.75;5054060;28;20112;-49
2023/09/23 05:20:20;;;;;;;9.63;5.38;;;;;;;9.75;100.00;100951.53;5052613;28;20578;-49
2023/09/23 05:22:46;;;;;;;9.00;5.93;;;;;;;9.74;100.00;100952.53;5050171;28;20032;-50
2023/09/23 05:25:14;;;;;;;10.00;5.85;;;;;;;9.74;100.00;100960.47;5048679;28;20098;-49
2023/09/23 05:27:39;;;;;;;13.32;5.95;;;;;;;9.72;100.00;100959.72;5050853;28;20083;-49
2023/09/23 05:30:08;;;;;;;7.40;5.38;;;;;;;9.73;100.00;100974.69;5050639;28;20025;-49
2023/09/23 05:32:34;;;;;;;7.80;5.93;;;;;;;9.73;100.00;100971.19;5048728;28;20068;-50
2023/09/23 05:35:00;;;;;;;12.32;5.75;;;;;;;9.71;100.00;100983.69;5044574;28;20116;-49
2023/09/23 05:37:26;;;;;;;10.35;5.40;;;;;;;9.71;100.00;100987.22;5045278;28;20152;-49
2023/09/23 05:39:52;;;;;;;10.48;6.00;;;;;;;9.71;100.00;100989.00;5046005;28;20491;-49
2023/09/23 05:42:23;;;;;;;8.10;5.25;;;;;;;9.69;100.00;100986.50;5051597;28;20036;-48
2023/09/23 05:44:48;;;;;;;8.05;5.70;;;;;;;9.70;100.00;101000.59;5045472;28;20065;-49
2023/09/23 05:47:13;;;;;;;11.73;5.72;;;;;;;9.71;100.00;100997.81;5048310;28;20060;-49
2023/09/23 05:49:39;;;;;;;9.43;5.25;;;;;;;9.70;100.00;101004.06;5046738;28;20021;-49
2023/09/23 05:52:04;;;;;;;8.77;5.63;;;;;;;9.70;100.00;101008.53;5049342;28;20028;-49
2023/09/23 05:54:31;;;;;;;11.43;5.32;;;;;;;9.70;100.00;101016.50;5049699;28;20468;-50
2023/09/23 05:56:56;;;;;;;10.73;5.60;;;;;;;9.71;100.00;101018.19;5050195;28;20060;-49
2023/09/23 05:59:22;;;;;;;10.18;5.95;;;;;;;9.71;100.00;101019.03;5047877;28;20433;-51
2023/09/23 06:01:47;;;;;;;14.00;5.70;;;;;;;9.73;100.00;101024.25;5047816;28;20108;-49
2023/09/23 06:04:13;;;;;;;9.98;5.57;;;;;;;9.73;100.00;101026.91;5051981;28;20021;-49
2023/09/23 06:06:38;;;;;;;10.60;5.35;;;;;;;9.73;100.00;101025.09;5043767;28;20510;-50
2023/09/23 06:09:07;;;;;;;7.45;5.57;;;;;;;9.73;100.00;101038.34;5052987;28;20029;-49
2023/09/23 06:11:33;;;;;;;8.57;5.88;;;;;;;9.76;100.00;101039.94;5048168;28;20398;-50
2023/09/23 06:13:58;;;;;;;12.68;6.63;;;;;;;9.74;100.00;101041.84;5048214;28;20079;-49
2023/09/23 06:16:24;;;;;;;11.80;5.70;;;;;;;9.80;100.00;101054.69;5049957;28;20494;-51
2023/09/23 06:18:49;;;;;;;9.77;5.78;;;;;;;9.81;100.00;101062.53;5050580;28;20368;-49
2023/09/23 06:21:14;;;;;;;10.95;5.90;;;;;;;9.85;100.00;101067.63;5044753;28;20036;-49
2023/09/23 06:23:40;;;;;;;13.20;6.35;;;;;;;9.87;100.00;101071.00;5041078;28;20056;-49
2023/09/23 06:26:05;;;;;;;12.45;5.53;;;;;;;9.91;100.00;101070.69;5047818;28;20552;-49
2023/09/23 06:28:32;;;;;;;13.35;6.13;;;;;;;9.94;100.00;101078.44;5050224;28;20029;-49
2023/09/23 06:30:58;;;;;;;13.93;6.18;;;;;;;9.98;100.00;101074.59;5047719;28;20341;-48
2023/09/23 06:33:23;;;;;;;11.25;5.72;;;;;;;10.03;100.00;101084.06;5048243;28;20032;-48
2023/09/23 06:35:49;;;;;;;12.45;6.05;;;;;;;10.07;100.00;101086.38;5049392;28;20036;-51
2023/09/23 06:38:15;;;;;;;15.32;6.60;;;;;;;10.10;100.00;101088.81;5044738;28;20040;-49
2023/09/23 06:40:40;;;;;;;8.45;5.70;;;;;;;10.15;100.00;101093.81;5045230;28;20029;-49
2023/09/23 06:43:06;;;;;;;17.25;6.57;;;;;;;10.19;100.00;101100.56;5046546;28;20064;-51
2023/09/23 06:45:31;;;;;;;10.98;6.10;;;;;;;10.24;100.00;101100.25;5046065;28;20047;-49
2023/09/23 06:47:57;;;;;;;12.65;6.20;;;;;;;10.27;100.00;101098.22;5047039;28;20024;-50
2023/09/23 06:50:22;;;;;;;12.30;6.18;;;;;;;10.31;100.00;101110.34;5048410;28;20078;-49
2023/09/23 06:52:48;;;;;;;13.57;6.10;;;;;;;10.35;100.00;101111.00;5046550;28;20486;-49
2023/09/23 06:55:13;;;;;;;12.15;6.50;;;;;;;10.41;100.00;101113.22;5047780;28;20021;-48
2023/09/23 06:57:39;;;;;;;10.27;6.13;;;;;;;10.45;100.00;101112.03;5049079;28;20108;-49
2023/09/23 07:00:07;;;;;;;10.70;6.00;;;;;;;10.50;100.00;101112.53;5042209;28;20037;-49
2023/09/23 07:02:33;;;;;;;13.30;6.45;;;;;;;10.55;100.00;101115.72;5050931;28;20025;-49
2023/09/23 07:04:58;;;;;;;10.00;6.30;;;;;;;10.61;100.00;101126.84;5047259;28;21218;-49
2023/09/23 07:07:23;;;;;;;10.07;6.28;;;;;;;10.66;100.00;101114.13;5048221;28;20048;-49
2023/09/23 07:09:48;;;;;;;14.75;6.13;;;;;;;10.71;100.00;101115.47;5050408;28;20029;-49
2023/09/23 07:12:14;;;;;;;13.10;6.40;;;;;;;10.75;100.00;101126.72;5045820;28;20037;-51
2023/09/23 07:14:40;;;;;;;14.50;6.68;;;;;;;10.79;100.00;101128.19;5059508;28;20083;-49
2023/09/23 07:17:06;;;;;;;9.13;6.60;;;;;;;10.84;100.00;101126.06;5049385;28;20424;-49
2023/09/23 07:19:32;;;;;;;10.45;6.57;;;;;;;10.92;100.00;101136.09;5042163;28;20568;-50
2023/09/23 07:21:58;;;;;;;11.20;6.38;;;;;;;10.99;100.00;101147.13;5045871;28;20136;-52
2023/09/23 07:24:26;;;;;;;13.68;6.93;;;;;;;11.08;100.00;101149.97;5044175;28;20056;-49
2023/09/23 07:26:54;;;;;;;12.38;7.32;;;;;;;11.14;100.00;101154.00;5039811;28;20027;-49
2023/09/23 07:29:19;;;;;;;11.80;6.75;;;;;;;11.22;100.00;101146.28;5061140;28;20021;-49
2023/09/23 07:31:44;;;;;;;11.82;6.85;;;;;;;11.34;100.00;101155.16;5049173;28;20548;-49
2023/09/23 07:34:11;;;;;;;14.43;6.90;;;;;;;11.48;100.00;101156.78;5049200;28;20116;-49
2023/09/23 07:36:36;;;;;;;9.55;6.05;;;;;;;11.64;100.00;101167.09;5065125;28;20049;-49
2023/09/23 07:39:02;;;;;;;14.07;6.63;;;;;;;11.72;100.00;101172.69;5050486;28;20482;-49
2023/09/23 07:41:27;;;;;;;9.80;6.15;;;;;;;11.88;100.00;101180.34;5051096;28;20112;-49
2023/09/23 07:43:52;;;;;;;9.82;6.43;;;;;;;12.03;100.00;101176.53;5050664;28;20094;-48
2023/09/23 07:46:17;;;;;;;12.02;6.25;;;;;;;12.16;100.00;101180.91;5050104;28;20545;-49
2023/09/23 07:48:43;;;;;;;10.07;5.68;;;;;;;12.26;100.00;101195.22;5047104;28;20063;-49
2023/09/23 07:51:12;;;;;;;9.63;5.88;;;;;;;12.42;100.00;101183.34;5041931;28;20108;-49
2023/09/23 07:53:37;;;;;;;11.32;5.70;;;;;;;12.59;100.00;101199.69;5045703;28;20021;-49
2023/09/23 07:56:02;;;;;;;9.52;5.03;;;;;;;12.73;100.00;101187.09;5042923;28;20546;-49
2023/09/23 07:58:28;;;;;;;9.40;5.43;;;;;;;12.77;100.00;101201.84;5046439;28;20410;-48
2023/09/23 08:00:53;;;;;;;8.60;4.68;;;;;;;12.89;100.00;101202.66;5053694;28;20067;-49
2023/09/23 08:03:18;;;;;;;10.15;4.97;;;;;;;12.96;100.00;101204.72;5047839;28;20457;-49
2023/09/23 08:05:44;;;;;;;13.27;5.35;;;;;;;13.03;100.00;101199.75;5047174;28;20032;-49
2023/09/23 08:08:10;;;;;;;8.38;4.50;;;;;;;13.14;100.00;101206.88;5051428;28;20030;-48
2023/09/23 08:10:35;;;;;;;11.38;5.22;;;;;;;13.22;100.00;101215.09;5047395;28;20475;-48
2023/09/23 08:13:02;;;;;;;10.02;4.97;;;;;;;13.33;100.00;101222.25;5050187;28;20032;-48
2023/09/23 08:15:27;;;;;;;9.07;4.45;;;;;;;13.42;100.00;101221.50;5048769;28;20053;-49
2023/09/23 08:17:53;;;;;;;8.32;4.60;;;;;;;13.61;100.00;101228.81;5050231;28;20483;-49
2023/09/23 08:20:20;;;;;;;9.38;4.75;;;;;;;13.73;100.00;101234.94;5052997;28;20034;-51
2023/09/23 08:22:48;;;;;;;11.02;4.53;;;;;;;13.82;100.00;101231.50;5057675;28;20048;-49
2023/09/23 08:25:15;;;;;;;7.63;4.57;;;;;;;13.95;100.00;101241.16;5049503;28;20025;-48
2023/09/23 08:27:41;;;;;;;6.68;3.85;;;;;;;14.03;100.00;101236.00;5052639;28;20033;-49
2023/09/23 08:30:08;;;;;;;6.75;3.90;;;;;;;14.20;100.00;101239.91;5053384;28;20071;-48
2023/09/23 08:32:33;;;;;;;9.30;4.10;;;;;;;14.23;100.00;101243.16;5053983;28;20032;-49
2023/09/23 08:34:59;;;;;;;7.07;3.58;;;;;;;14.31;100.00;101242.50;5054561;28;20024;-48
2023/09/23 08:37:24;;;;;;;8.48;3.38;;;;;;;14.30;100.00;101246.13;5052270;28;20104;-49
2023/09/23 08:39:49;;;;;;;6.38;3.15;;;;;;;14.46;100.00;101247.50;5054113;28;20106;-50
2023/09/23 08:42:17;;;;;;;10.70;3.53;;;;;;;14.59;100.00;101257.03;5049530;28;20119;-50
2023/09/23 08:44:43;;;;;;;8.95;3.30;;;;;;;14.72;100.00;101255.94;5049808;28;20502;-48
2023/09/23 08:47:10;;;;;;;8.50;3.30;;;;;;;14.77;100.00;101270.63;5051227;28;20021;-49
2023/09/23 08:49:37;;;;;;;6.22;2.95;;;;;;;14.85;100.00;101275.28;5052248;28;20025;-49
2023/09/23 08:52:04;;;;;;;9.38;3.10;;;;;;;15.02;100.00;101283.66;5050558;28;20021;-48
2023/09/23 08:54:29;;;;;;;10.45;3.40;;;;;;;15.07;100.00;101284.94;5051914;28;20036;-49
2023/09/23 08:56:55;;;;;;;7.65;3.47;;;;;;;15.11;100.00;101293.53;5052721;28;20025;-49
2023/09/23 08:59:20;;;;;;;11.02;3.08;;;;;;;15.05;100.00;101296.75;5053864;28;20044;-49
2023/09/23 09:01:46;;;;;;;6.90;2.67;;;;;;;15.06;100.00;101293.94;5051569;28;20029;-48
2023/09/23 09:04:13;;;;;;;7.38;2.75;;;;;;;15.03;100.00;101294.22;5048103;28;20025;-48
2023/09/23 09:06:59;;;;;;;7.18;2.50;;;;;;;15.11;100.00;101297.06;5051983;28;20055;-48
2023/09/23 09:09:25;;;;;;;9.68;2.55;;;;;;;15.22;100.00;101303.28;5051958;28;20135;-49
2023/09/23 09:11:58;;;;;;;5.45;2.58;;;;;;;15.30;100.00;101306.13;5051316;28;20119;-48
2023/09/23 09:14:24;;;;;;;10.93;2.50;;;;;;;15.48;100.00;101304.47;5048562;28;20063;-48
2023/09/23 09:16:49;;;;;;;11.43;2.67;;;;;;;15.67;100.00;101309.00;5053126;28;20057;-49
2023/09/23 09:19:15;;;;;;;7.03;2.30;;;;;;;15.69;100.00;101312.38;5049193;28;20436;-48
2023/09/23 09:21:43;;;;;;;5.95;2.25;;;;;;;15.71;100.00;101322.97;5051371;28;20473;-48
2023/09/23 09:24:09;;;;;;;9.52;2.20;;;;;;;15.76;100.00;101326.09;5049030;28;20031;-49
2023/09/23 09:26:38;;;;;;;6.63;2.33;;;;;;;15.68;99.98;101331.28;5055177;28;20025;-49
2023/09/23 09:29:03;;;;;;;8.32;2.30;;;;;;;15.59;98.64;101335.63;5049850;28;20094;-49
2023/09/23 09:31:36;;;;;;;7.80;2.65;;;;;;;15.54;99.88;101340.56;5053646;28;20463;-49
2023/09/23 09:34:05;;;;;;;5.05;2.25;;;;;;;15.48;100.00;101339.25;5048777;28;20395;-49
2023/09/23 09:36:34;;;;;;;6.95;2.20;;;;;;;15.50;99.83;101337.31;5045960;28;20018;-48
2023/09/23 09:39:02;;;;;;;5.82;2.58;;;;;;;15.46;100.00;101327.00;5052054;28;20021;-50
2023/09/23 09:41:33;;;;;;;8.50;2.27;;;;;;;15.48;100.00;101341.94;5046024;28;20052;-48
2023/09/23 09:44:02;;;;;;;3.38;1.92;;;;;;;15.51;100.00;101344.34;5047325;28;20453;-49
2023/09/23 09:46:30;;;;;;;6.68;2.30;;;;;;;15.43;98.69;101352.22;5047446;28;20060;-48
2023/09/23 09:48:57;;;;;;;8.80;2.08;;;;;;;15.37;99.94;101355.47;5044814;28;20032;-48
2023/09/23 09:51:23;;;;;;;8.32;2.58;;;;;;;15.37;100.00;101355.47;5055572;28;20060;-49
2023/09/23 09:53:50;;;;;;;7.25;2.28;;;;;;;15.38;100.00;101351.78;5046645;28;20025;-48
2023/09/23 09:56:16;;;;;;;4.78;2.38;;;;;;;15.35;98.60;101352.03;5047155;28;20108;-49
2023/09/23 09:58:42;;;;;;;6.88;2.00;;;;;;;15.39;99.65;101355.28;5047461;28;20112;-48
2023/09/23 10:01:12;;;;;;;6.63;2.30;;;;;;;15.44;100.00;101350.41;5051047;28;20029;-50
2023/09/23 10:03:40;;;;;;;4.03;1.92;;;;;;;15.45;98.94;101354.75;5047192;28;20423;-49
2023/09/23 10:06:07;;;;;;;7.00;2.28;;;;;;;15.51;99.01;101357.72;5046956;28;20040;-49
2023/09/23 10:08:38;;;;;;;8.98;2.30;;;;;;;15.53;99.21;101355.75;5052143;28;20021;-49
2023/09/23 10:11:08;;;;;;;5.53;2.10;;;;;;;15.60;100.00;101357.88;5055881;28;20021;-50
2023/09/23 10:13:33;;;;;;;7.63;2.40;;;;;;;15.73;99.75;101369.19;5050440;28;20025;-48
2023/09/23 10:16:03;;;;;;;9.60;2.95;;;;;;;15.76;98.94;101365.44;5051952;28;20043;-49
2023/09/23 10:18:40;;;;;;;6.43;2.10;;;;;;;15.82;98.92;101363.03;5051057;28;20037;-49
2023/09/23 10:21:07;;;;;;;6.25;2.47;;;;;;;15.89;97.93;101363.34;5051804;28;20418;-48
2023/09/23 10:23:35;;;;;;;8.93;2.65;;;;;;;15.96;97.29;101361.78;5044079;28;20387;-52
2023/09/23 10:26:13;;;;;;;4.50;1.90;;;;;;;15.99;97.54;101369.53;5050026;28;20354;-49
2023/09/23 10:28:39;;;;;;;12.35;2.95;;;;;;;16.00;97.69;101379.25;5043746;28;20039;-51
2023/09/23 10:31:05;;;;;;;10.50;2.50;;;;;;;16.02;95.99;101379.97;5050014;28;20382;-49
2023/09/23 10:33:32;;;;;;;7.47;2.30;;;;;;;16.01;96.27;101377.44;5050444;28;20031;-49
2023/09/23 10:35:58;;;;;;;9.27;2.30;;;;;;;16.02;94.84;101384.47;5051228;28;20060;-49
2023/09/23 10:38:34;;;;;;;6.47;2.47;;;;;;;16.03;95.81;101381.66;5048400;28;20032;-49
2023/09/23 10:41:01;;;;;;;4.70;2.00;;;;;;;16.05;97.24;101379.72;5048851;28;20065;-49
2023/09/23 10:43:27;;;;;;;6.40;2.28;;;;;;;16.06;93.50;101386.75;5050740;28;20111;-48
2023/09/23 10:45:54;;;;;;;6.60;2.55;;;;;;;16.11;94.52;101396.22;5043911;28;20026;-49
2023/09/23 10:48:20;;;;;;;6.32;2.40;;;;;;;16.13;96.23;101402.28;5048417;28;20154;-49
2023/09/23 10:50:45;;;;;;;8.05;2.45;;;;;;;16.17;95.36;101409.03;5045658;28;20025;-49
2023/09/23 10:53:14;;;;;;;10.68;2.35;;;;;;;16.14;93.32;101407.50;5050353;28;20029;-49
2023/09/23 10:55:40;;;;;;;;;;;;;;;16.28;97.17;101414.25;5051386;28;20391;-49
2023/09/23 10:58:09;;;;;;;7.50;2.63;;;;;;;16.09;94.65;101409.75;5053044;28;19916;-49
2023/09/23 11:00:38;;;;;;;7.78;2.42;;;;;;;16.06;94.20;101418.06;5051225;28;20060;-50
2023/09/23 11:03:11;;;;;;;6.53;2.47;;;;;;;15.98;94.05;101410.72;5051257;28;20035;-49
2023/09/23 11:05:37;;;;;;;5.85;2.08;;;;;;;15.98;96.07;101421.44;5063450;28;20551;-49
2023/09/23 11:08:10;;;;;;;5.00;2.50;;;;;;;15.96;95.58;101419.88;5047278;28;20421;-48
2023/09/23 11:10:38;;;;;;;8.00;2.80;;;;;;;16.05;96.42;101419.03;5046922;28;20031;-48
2023/09/23 11:13:08;;;;;;;7.75;2.60;;;;;;;16.20;94.71;101433.72;5048238;28;20067;-49